^^
Meteo Knjazevac Station Historical Data
Daily Summary for July 18, 2021 Units:  English    Metric   Both
Daily Weekly Monthly Yearly Custom
  High: Low: Average:
Temperature: 66 °F 59.4 °F 62.6 °F
Dew Point: 60.7 °F 53.7 °F 56.6 °F
Humidity: 84% 79% 81%
Wind Speed: 5mph 0mph 1.8mph
Wind Gust: 8mph - -
Wind- - SSW
Pressure: 30.05 in 30.03 in -
Precipitation: 0.00 in    
Historical Graphs
 
 
Tabular Data for July 18, 2021
Time Temperature Dew Point Pressure Wind Wind Speed Wind Gust Humidity Rainfall Rate (Hourly) solar Conditions
00:00 66 °F 60 °F 30.04 in SW 2 mph 6 mph 81% 0.00 in 0 W/m2
00:10 66 °F 60.7 °F 30.04 in South 1 mph 6 mph 83% 0.00 in 0 W/m2
00:20 65.8 °F 60.2 °F 30.04 in SSW 3 mph 6 mph 82% 0.00 in 0 W/m2
00:30 65.7 °F 59.7 °F 30.04 in SW 3 mph 5 mph 81% 0.00 in 0 W/m2
00:40 65.5 °F 59.5 °F 30.04 in SW 3 mph 6 mph 81% 0.00 in 0 W/m2
00:50 65.5 °F 59.1 °F 30.04 in SW 5 mph 8 mph 80% 0.00 in 0 W/m2
01:00 65.3 °F 59 °F 30.04 in SSW 1 mph 6 mph 80% 0.00 in 0 W/m2
01:10 65.1 °F 58.8 °F 30.04 in SSE 1 mph 6 mph 80% 0.00 in 0 W/m2
01:20 64.8 °F 58.4 °F 30.04 in Calm   6 mph 80% 0.00 in 0 W/m2
01:30 64.6 °F 58.3 °F 30.04 in SE 2 mph 6 mph 80% 0.00 in 0 W/m2
01:40 64.4 °F 58.1 °F 30.04 in South 2 mph 5 mph 80% 0.00 in 0 W/m2
01:50 64.2 °F 57.9 °F 30.04 in South 3 mph 5 mph 80% 0.00 in 0 W/m2
02:00 64.2 °F 57.9 °F 30.03 in SSW 2 mph 5 mph 80% 0.00 in 0 W/m2
02:10 64 °F 57.4 °F 30.03 in SW 5 mph 8 mph 79% 0.00 in 0 W/m2
02:20 63.9 °F 57.2 °F 30.03 in SSW 3 mph 7 mph 79% 0.00 in 0 W/m2
02:30 63.7 °F 57 °F 30.03 in SW 3 mph 7 mph 79% 0.00 in 0 W/m2
02:40 63.5 °F 56.9 °F 30.03 in SW 2 mph 6 mph 79% 0.00 in 0 W/m2
02:50 63.5 °F 56.9 °F 30.03 in SSW 3 mph 6 mph 79% 0.00 in 0 W/m2
03:00 63.3 °F 56.7 °F 30.03 in SW 3 mph 6 mph 79% 0.00 in 0 W/m2
03:10 63.1 °F 56.5 °F 30.03 in SW 3 mph 6 mph 79% 0.00 in 0 W/m2
03:20 62.8 °F 56.2 °F 30.04 in SW 2 mph 5 mph 79% 0.00 in 0 W/m2
03:30 62.8 °F 56.5 °F 30.04 in SSW 2 mph 4 mph 80% 0.00 in 0 W/m2
03:40 62.4 °F 56.2 °F 30.04 in SW 1 mph 3 mph 80% 0.00 in 0 W/m2
03:50 62.2 °F 56 °F 30.04 in SW 2 mph 2 mph 80% 0.00 in 0 W/m2
04:00 61.9 °F 56 °F 30.04 in Calm   2 mph 81% 0.00 in 0 W/m2
04:10 61.7 °F 55.8 °F 30.04 in SSW 2 mph 5 mph 81% 0.00 in 0 W/m2
04:20 61.4 °F 55.5 °F 30.04 in SSW 2 mph 5 mph 81% 0.00 in 0 W/m2
04:30 61.2 °F 55.3 °F 30.04 in South 1 mph 5 mph 81% 0.00 in 0 W/m2
04:40 61 °F 55.2 °F 30.04 in SW 1 mph 4 mph 81% 0.00 in 0 W/m2
04:50 60.8 °F 54.9 °F 30.04 in WNW 2 mph 4 mph 81% 0.00 in 0 W/m2
05:00 60.6 °F 54.8 °F 30.04 in SW 2 mph 5 mph 81% 0.00 in 0 W/m2
05:10 60.4 °F 55.3 °F 30.04 in Calm   4 mph 83% 0.00 in 0 W/m2
05:20 60.3 °F 55.1 °F 30.04 in SW 1 mph 3 mph 83% 0.00 in 0 W/m2
05:30 60.1 °F 54.6 °F 30.04 in Calm   2 mph 82% 0.00 in 0 W/m2
05:40 59.9 °F 54.1 °F 30.04 in SE 1 mph 2 mph 81% 0.00 in 3 W/m2
05:50 59.7 °F 54.2 °F 30.04 in NE 1 mph 2 mph 82% 0.00 in 9 W/m2
06:00 59.5 °F 54.7 °F 30.04 in West 2 mph 3 mph 84% 0.00 in 17 W/m2
06:10 59.4 °F 54.5 °F 30.05 in SW 1 mph 3 mph 84% 0.00 in 28 W/m2
06:20 59.4 °F 54.2 °F 30.05 in ENE 1 mph 3 mph 83% 0.00 in 43 W/m2
06:30 59.5 °F 53.7 °F 30.05 in SE 1 mph 4 mph 81% 0.00 in 64 W/m2
06:40 59.7 °F 53.9 °F 30.05 in Calm   3 mph 81% 0.00 in 81 W/m2
06:50 60 °F 54.2 °F 30.05 in North 2 mph 4 mph 81% 0.00 in 82 W/m2
Knjazevac, Serbia
Compliments of Weather Underground - 2 mb